Station info - map view · info · telemetry · weather · raw · status · beacons · messages · bulletins · browse · moving · my account
Callsign, ship name or locator: Clear       
It is possible to search using wildcards (*?) after a prefix. Example: OH*
APRS station KJ6BJL-9 - show graphs
Map loading...
Comment: /TinyTrak4 Alpha
Mic-E message: Off duty
Location: 38°22.17' N 120°47.73' W - locator CM98OI48MQ - show map - static map
1.7 miles South bearing 167° from Sutter Creek, Amador County, California, United States [?]
1.8 miles Northwest bearing 321° from Jackson, Amador County, California, United States
40.5 miles East bearing 111° from Sacramento, Sacramento County, California, United States
93.0 miles Northeast bearing 40° from San Jose, Santa Clara County, California, United States
Last position: 2018-02-23 16:33:17 EST (2d 18m ago)
2018-02-23 13:33:17 PST local time at Sutter Creek, United States [?]
Altitude: 1558 ft
Course: 219°
Speed: 6 MPH
Last path: KJ6BJL-9>SXRRQW via K6CDF-8*,AC6ET-5*,qAR,W6PKT-5 (good)
Positions stored: 6121
Packet rate: 104 seconds between packets on average during 4767 seconds.
Stations near current position of KJ6BJL-9 - show more
callsign distance last heard - EST      callsign distance last heard - EST
N6VIA327.6 yards 256°2018-02-24 19:56:00 EW81351.8 miles 36°2018-02-25 16:50:10
N3CKF-77.0 miles 45°2018-02-01 19:27:10 N6YBH-97.8 miles 338°2018-02-23 22:45:00
146.835007.9 miles 80°2018-02-25 16:31:37 ACARC9.2 miles 215°2018-02-25 15:01:34
AC6LW-911.3 miles 71°2018-02-21 11:35:09 AC6LW-1512.7 miles 71°2018-02-24 11:37:49
WS6P-1013.8 miles 84°2018-02-25 16:45:09 IRLP-575013.9 miles 54°2018-02-25 16:33:02
KS6HRP C14.1 miles 275°2018-02-25 16:50:00 KS6HRP-C14.1 miles 275°2018-02-25 16:49:45
FW046514.4 miles 185°2018-02-25 16:52:12 KJ6WYW-1014.6 miles 70°2018-02-25 16:45:08
WS6P15.0 miles 82°2018-02-25 16:47:28 KK6TND-915.2 miles 288°2018-02-25 14:49:26
W6HMT-915.2 miles 18°2018-02-12 17:26:50 NA6BR-115.4 miles 55°2018-02-16 16:26:20
N6XD-815.5 miles 55°2018-02-25 16:27:51 N6XD15.5 miles 55°2018-02-06 07:00:48
Stations which heard KJ6BJL-9 directly on radio –
callsign pkts first heard - EST last heard longest (tx => rx) longest at - EST
SLIDE 14 2018-02-09 14:35:48 2018-02-12 14:55:04 CM98WP > DM09BH 48.3 miles 16° 2018-02-09 14:35:48
K6JE-3 2 2018-02-09 14:19:56 2018-02-09 14:21:40 CM98UN > CM96FS 139.6 miles 208° 2018-02-09 14:21:40
W6CX-3 18 2018-02-09 13:59:21 2018-02-23 16:32:16 CM98TM > CM97BV 93.4 miles 242° 2018-02-09 14:15:47
VIRGPK 1 2018-02-09 16:22:38 2018-02-09 16:22:38 DM09EH > DM09GS 32.0 miles 18° 2018-02-09 16:22:38
COREY 5 2018-02-09 15:03:02 2018-02-12 12:44:30 DM09EH > DM08OK 75.8 miles 141° 2018-02-09 16:21:49
RANCHO 5 2018-02-09 14:10:51 2018-02-12 16:17:28 CM98SM > CM98QR 17.8 miles 320° 2018-02-12 16:13:41
K6FGA-1 13 2018-02-09 14:25:40 2018-02-12 16:03:59 DM08AQ > CM99MF 65.4 miles 305° 2018-02-09 15:07:44
WA6ODP-3 11 2018-02-09 13:27:01 2018-02-23 16:32:15 CM98VP > CM97AP 114.5 miles 235° 2018-02-09 14:31:07
BOB 3 2018-02-09 16:03:39 2018-02-12 13:03:28 DM09DE > DM09BN 27.7 miles 347° 2018-02-12 13:03:28
ECHO 7 2018-02-09 14:23:33 2018-02-12 15:45:15 CM98UN > CM98XT 19.4 miles 34° 2018-02-09 14:25:16
SNOW 49 2018-02-09 15:17:30 2018-02-12 15:01:42 DM08BS > DM09BD 27.0 miles 357° 2018-02-09 15:17:30
CARSON 14 2018-02-09 14:24:23 2018-02-12 16:09:41 CM98TN > DM08AQ 23.5 miles 64° 2018-02-12 16:09:41
N6ZX-3 9 2018-02-09 14:03:09 2018-02-20 11:27:17 CM98VP > CM87UK 142.9 miles 235° 2018-02-09 14:35:03
K6CDF-5 21 2018-02-09 14:01:04 2018-02-20 12:00:47 CM98XR > CM88PU 143.6 miles 275° 2018-02-12 15:31:36
K6CDF-8 52 2018-02-09 14:03:09 2018-02-23 16:33:17 DM08AQ > CM89SC 136.7 miles 283° 2018-02-12 15:26:20
K7FED-1 44 2018-02-09 13:27:23 2018-02-23 16:27:58 CM98VP > CM97FP 98.7 miles 227° 2018-02-09 14:33:52
KJ6NKR-2 7 2018-02-12 12:43:02 2018-02-12 15:36:49 DM09EH > DM08AV 33.6 miles 213° 2018-02-12 12:43:02
KJ6IX-5 47 2018-02-09 15:16:50 2018-02-12 15:05:21 DM09EH > DM08DV 30.2 miles 189° 2018-02-12 12:23:09
DANAHR 5 2018-02-09 14:09:44 2018-02-23 15:33:36 CM98UN > CM98PR 23.9 miles 304° 2018-02-09 14:21:28
K6SJC-1 5 2018-02-09 14:08:07 2018-02-20 11:59:35 CM98UN > CM97JV 69.7 miles 230° 2018-02-09 14:23:21
VACA 8 2018-02-09 13:59:52 2018-02-09 14:44:57 CM98WQ > CM88WJ 110.5 miles 260° 2018-02-09 14:44:57
ALDER 45 2018-02-09 14:15:32 2018-02-23 15:32:01 DM09EH > CM98TR 53.2 miles 225° 2018-02-12 12:42:55
KE6CAC 1 2018-02-09 14:17:46 2018-02-09 14:17:46 CM98TM > CM98GJ 60.9 miles 262° 2018-02-09 14:17:46
N6VUD-15 1 2018-02-23 16:11:53 2018-02-23 16:11:53 CM98OI > CM87VV 84.8 miles 247° 2018-02-23 16:11:53
AC6ET-5 2 2018-02-09 14:23:22 2018-02-20 11:37:08 CM98UN > CM89KC 154.9 miles 286° 2018-02-09 14:23:22
W6SRR-3 76 2018-02-09 13:42:01 2018-02-23 16:14:31 DM08AQ > CM97AO 128.5 miles 235° 2018-02-12 15:25:22
K3OES 7 2018-02-09 14:01:16 2018-02-23 15:18:23 CM98WP > CM89PK 147.6 miles 293° 2018-02-09 14:35:27
N6VV-3 3 2018-02-12 16:10:22 2018-02-12 17:28:04 CM98TM > CM87WW 101.1 miles 247° 2018-02-12 16:10:22
PINE 10 2018-02-09 14:05:18 2018-02-12 16:03:28 CM98XQ > CM98MR 50.6 miles 272° 2018-02-09 14:49:02
WARD 20 2018-02-09 15:15:49 2018-02-23 15:32:54 CM98QJ > CM99UD 55.8 miles 22° 2018-02-23 15:32:09

Only position packets which were originated by the station are shown here. The range statistics show some extra long hops, because some digipeaters do not correctly add themselves to the digipeater path. Please check the raw packets.
About this site
This page shows real-time information collected from the Automatic Position Reporting System Internet network (APRS-IS). APRS is used by amateur (ham) radio operators to transmit real-time position information, weather data, telemetry and messages over the radio. A vehicle equipped with a GPS receiver, a VHF transmitter or HF transceiver and a small computer device called a tracker transmits it's location, speed and course in a small data packet, which is then received by a nearby iGate receiving site which forwards the packet on the Internet. Systems connected to the Internet can send information on the APRS-IS without a radio transmitter, or collect and display information transmitted anywhere in the world.
FAQ · Blog · Discussion group · Linking to aprs.fi · AIS sites · Service status · Database statistics · Advertising on aprs.fi · Technical details · API · Change log · Planned changes · Credits and thanks · Terms Of Service · iPhone/iPad APRS